Time;durP1;ratioP1;P1;durP2;ratioP2;P2;SDS_P1;SDS_P2;PMS_P1;PMS_P2;Temp;Humidity;BMP_temperature;BMP_pressure;BME280_temperature;BME280_humidity;BME280_pressure;Samples;Min_cycle;Max_cycle;Signal;HPM_P1;HPM_P2
2022/10/08 00:00:51;;;;;;;14.38;10.80;;;16.50;99.90;;;;;;5033770;28;20730;-73
2022/10/08 00:03:19;;;;;;;10.90;9.80;;;16.40;99.90;;;;;;5029850;28;20201;-73
2022/10/08 00:05:55;;;;;;;11.23;10.13;;;16.80;99.90;;;;;;5029992;28;20233;-74
2022/10/08 00:08:21;;;;;;;12.18;10.55;;;16.60;99.90;;;;;;5032954;28;20257;-73
2022/10/08 00:10:55;;;;;;;12.37;10.40;;;16.40;99.90;;;;;;5031252;28;20269;-74
2022/10/08 00:13:22;;;;;;;13.25;10.90;;;16.50;99.90;;;;;;5026387;28;20181;-73
2022/10/08 00:15:48;;;;;;;12.98;11.02;;;16.70;99.90;;;;;;5038552;28;20229;-73
2022/10/08 00:18:13;;;;;;;14.20;10.37;;;16.60;99.90;;;;;;5017297;28;20218;-73
2022/10/08 00:20:39;;;;;;;12.97;10.77;;;16.40;99.90;;;;;;5039664;28;20224;-73
2022/10/08 00:23:04;;;;;;;11.63;10.40;;;16.40;99.90;;;;;;5032914;28;20206;-73
2022/10/08 00:25:30;;;;;;;11.90;10.80;;;16.20;99.90;;;;;;5032128;28;20212;-74
2022/10/08 00:27:56;;;;;;;12.33;9.90;;;16.20;99.90;;;;;;5036343;28;20189;-74
2022/10/08 00:30:21;;;;;;;11.10;10.10;;;16.20;99.90;;;;;;5032754;28;20197;-75
2022/10/08 00:32:47;;;;;;;10.77;9.73;;;15.90;99.90;;;;;;5040564;28;20272;-75
2022/10/08 00:35:13;;;;;;;10.97;9.87;;;15.80;99.90;;;;;;5033371;28;20216;-76
2022/10/08 00:37:39;;;;;;;12.43;10.90;;;16.00;99.90;;;;;;5030595;28;20221;-76
2022/10/08 00:40:05;;;;;;;10.83;9.70;;;16.00;99.90;;;;;;5031202;28;20182;-73
2022/10/08 00:42:31;;;;;;;14.95;10.90;;;15.80;99.90;;;;;;5032058;28;20182;-74
2022/10/08 00:44:58;;;;;;;11.90;10.77;;;15.80;99.90;;;;;;5030862;28;20550;-74
2022/10/08 00:47:45;;;;;;;12.45;10.98;;;15.90;99.90;;;;;;5030491;28;20277;-74
2022/10/08 00:50:15;;;;;;;12.30;11.02;;;15.50;99.90;;;;;;5015803;28;20591;-74
2022/10/08 00:52:54;;;;;;;11.52;10.38;;;15.80;99.90;;;;;;5032040;28;20730;-74
2022/10/08 00:55:21;;;;;;;12.70;11.50;;;15.70;99.90;;;;;;5040156;28;20210;-74
2022/10/08 00:57:48;;;;;;;25.65;11.60;;;15.50;99.90;;;;;;5029440;28;20524;-74
2022/10/08 01:00:20;;;;;;;11.45;10.35;;;15.50;99.90;;;;;;5033579;28;20186;-74
2022/10/08 01:02:46;;;;;;;12.05;10.85;;;15.30;99.90;;;;;;5030447;28;20216;-74
2022/10/08 01:05:16;;;;;;;12.20;10.83;;;15.40;99.90;;;;;;5029488;28;20215;-74
2022/10/08 01:07:58;;;;;;;11.00;10.10;;;15.70;99.90;;;;;;5030614;28;20528;-74
2022/10/08 01:10:39;;;;;;;12.30;11.13;;;15.40;99.90;;;;;;5020774;28;20193;-74
2022/10/08 01:13:21;;;;;;;13.52;12.13;;;15.60;99.90;;;;;;5019766;28;20269;-75
2022/10/08 01:16:05;;;;;;;12.00;10.50;;;15.40;99.90;;;;;;5024903;28;20367;-74
2022/10/08 01:18:54;;;;;;;12.27;11.07;;;15.40;99.90;;;;;;5028847;28;20185;-73
2022/10/08 01:21:42;;;;;;;13.82;11.32;;;15.40;99.90;;;;;;5039774;28;20209;-74
2022/10/08 01:24:15;;;;;;;11.13;9.98;;;15.40;99.90;;;;;;5029398;28;20974;-73
2022/10/08 01:27:01;;;;;;;18.05;11.55;;;15.50;99.90;;;;;;5025753;28;20202;-73
2022/10/08 01:29:38;;;;;;;16.88;11.20;;;15.70;99.90;;;;;;5042222;28;20171;-74
2022/10/08 01:32:12;;;;;;;13.68;10.85;;;15.50;99.90;;;;;;5025272;28;20274;-73
2022/10/08 01:34:48;;;;;;;11.88;10.75;;;15.50;99.90;;;;;;5026587;28;20187;-74
2022/10/08 01:37:23;;;;;;;12.00;10.80;;;15.40;99.90;;;;;;5024478;28;20229;-73
2022/10/08 01:39:52;;;;;;;12.00;10.88;;;15.40;99.90;;;;;;5031441;28;20232;-74
2022/10/08 01:42:22;;;;;;;10.60;9.70;;;15.60;99.90;;;;;;5030540;28;20554;-74
2022/10/08 01:44:52;;;;;;;11.10;10.00;;;15.40;99.90;;;;;;5022119;28;20199;-74
2022/10/08 01:47:26;;;;;;;12.40;10.75;;;15.40;99.90;;;;;;5013669;28;20190;-74
2022/10/08 01:50:04;;;;;;;13.68;10.30;;;15.60;99.90;;;;;;5030036;28;20190;-74
2022/10/08 01:52:39;;;;;;;12.48;11.27;;;15.50;99.90;;;;;;5029629;28;20178;-74
2022/10/08 01:55:12;;;;;;;12.43;10.77;;;15.40;99.90;;;;;;5026568;28;20182;-74
2022/10/08 01:57:39;;;;;;;11.55;10.23;;;15.20;99.90;;;;;;5031044;28;20585;-74
2022/10/08 02:00:11;;;;;;;12.15;10.35;;;15.50;99.90;;;;;;5023407;28;20643;-74
2022/10/08 02:02:38;;;;;;;11.98;10.55;;;15.60;99.90;;;;;;5034843;28;20189;-74
2022/10/08 02:05:04;;;;;;;10.70;9.80;;;15.50;99.90;;;;;;5034844;28;20178;-74
2022/10/08 02:07:34;;;;;;;10.85;9.85;;;15.60;99.90;;;;;;5022169;28;20178;-74
2022/10/08 02:10:16;;;;;;;12.27;10.00;;;15.60;99.90;;;;;;5031496;28;20174;-74
2022/10/08 02:12:43;;;;;;;11.27;9.80;;;15.50;99.90;;;;;;5030542;28;20182;-74
2022/10/08 02:15:16;;;;;;;12.48;9.48;;;15.70;99.90;;;;;;5029734;28;20201;-74
2022/10/08 02:17:56;;;;;;;10.77;9.57;;;15.60;99.90;;;;;;5030569;28;20229;-74
2022/10/08 02:20:37;;;;;;;12.27;10.30;;;15.90;99.90;;;;;;5035965;28;20176;-75
2022/10/08 02:23:21;;;;;;;10.77;9.13;;;15.50;99.90;;;;;;5030966;28;20666;-74
2022/10/08 02:26:00;;;;;;;9.60;8.60;;;15.60;99.90;;;;;;5028422;28;20242;-74
2022/10/08 02:28:48;;;;;;;16.65;9.63;;;15.50;99.90;;;;;;5040953;28;20182;-74
2022/10/08 02:31:51;;;;;;;10.30;9.32;;;15.80;99.90;;;;;;5016405;28;20174;-74
2022/10/08 02:34:20;;;;;;;9.95;9.02;;;15.70;99.90;;;;;;5030814;28;20174;-74
2022/10/08 02:37:09;;;;;;;17.25;9.95;;;15.80;99.90;;;;;;5031363;28;20215;-75
2022/10/08 02:39:40;;;;;;;10.93;9.95;;;15.70;99.90;;;;;;5026939;28;20183;-74
2022/10/08 02:42:09;;;;;;;12.10;9.52;;;15.70;99.90;;;;;;5021540;28;20173;-74
2022/10/08 02:44:56;;;;;;;10.40;9.50;;;15.80;99.90;;;;;;5023646;28;20225;-74
2022/10/08 02:47:26;;;;;;;10.43;9.45;;;15.60;99.90;;;;;;5029039;28;20177;-75
2022/10/08 02:50:01;;;;;;;9.48;8.63;;;15.80;99.90;;;;;;5034918;28;20181;-74
2022/10/08 02:52:31;;;;;;;10.00;8.60;;;15.50;99.90;;;;;;5021128;28;20182;-74
2022/10/08 02:54:59;;;;;;;10.27;9.25;;;15.60;99.90;;;;;;5028358;28;20184;-74
2022/10/08 02:57:28;;;;;;;11.93;9.15;;;15.70;99.90;;;;;;5027870;28;20175;-74
2022/10/08 02:59:54;;;;;;;10.88;9.88;;;15.70;99.90;;;;;;5025710;28;20170;-75
2022/10/08 03:02:35;;;;;;;14.05;10.90;;;15.70;99.90;;;;;;5028611;28;20302;-75
2022/10/08 03:05:05;;;;;;;9.70;8.80;;;15.60;99.90;;;;;;5028159;28;20186;-74
2022/10/08 03:07:33;;;;;;;10.15;8.77;;;15.60;99.90;;;;;;5023412;28;20296;-75
2022/10/08 03:10:04;;;;;;;11.18;9.68;;;15.70;99.90;;;;;;5030164;28;20676;-75
2022/10/08 03:12:31;;;;;;;10.48;9.15;;;15.60;99.90;;;;;;5028504;28;20178;-75
2022/10/08 03:14:56;;;;;;;9.40;8.55;;;15.60;99.90;;;;;;5035422;28;20278;-75
2022/10/08 03:17:29;;;;;;;9.73;8.93;;;15.50;99.90;;;;;;5028171;28;20281;-75
2022/10/08 03:19:55;;;;;;;10.10;9.20;;;15.50;99.90;;;;;;5028670;28;20436;-75
2022/10/08 03:22:22;;;;;;;10.73;9.80;;;15.40;99.90;;;;;;5028698;28;20285;-74
2022/10/08 03:24:48;;;;;;;9.85;8.95;;;15.40;99.90;;;;;;5023605;28;20198;-74
2022/10/08 03:27:14;;;;;;;10.07;9.00;;;15.40;99.90;;;;;;5029309;28;20213;-74
2022/10/08 03:29:40;;;;;;;10.13;9.20;;;15.60;99.90;;;;;;5027691;28;20212;-74
2022/10/08 03:32:05;;;;;;;11.02;9.50;;;15.70;99.90;;;;;;5030188;28;20253;-74
2022/10/08 03:34:31;;;;;;;9.87;8.97;;;15.40;99.90;;;;;;5029953;28;20269;-74
2022/10/08 03:36:57;;;;;;;9.70;8.53;;;15.70;99.90;;;;;;5026546;28;20301;-74
2022/10/08 03:39:22;;;;;;;9.33;8.50;;;15.70;99.90;;;;;;5011422;28;20186;-74
2022/10/08 03:41:48;;;;;;;10.90;8.83;;;15.50;99.90;;;;;;5031438;28;20197;-74
2022/10/08 03:44:13;;;;;;;9.23;8.30;;;15.60;99.90;;;;;;5028767;28;20190;-74
2022/10/08 03:46:39;;;;;;;12.60;10.30;;;15.60;99.90;;;;;;5029568;28;21034;-74
2022/10/08 03:49:05;;;;;;;9.40;8.60;;;15.80;99.90;;;;;;5037430;28;20182;-74
2022/10/08 03:51:31;;;;;;;10.73;8.27;;;15.70;99.90;;;;;;5028827;28;20186;-74
2022/10/08 03:53:57;;;;;;;12.20;8.70;;;15.80;99.90;;;;;;5036056;28;20499;-74
2022/10/08 03:56:23;;;;;;;9.40;8.33;;;15.90;99.90;;;;;;5026177;28;20212;-74
2022/10/08 03:58:57;;;;;;;9.95;9.07;;;15.50;99.90;;;;;;5022983;28;20433;-76
2022/10/08 04:01:24;;;;;;;11.07;9.35;;;15.90;99.90;;;;;;5032531;28;20180;-75
2022/10/08 04:03:50;;;;;;;9.27;8.45;;;15.70;99.90;;;;;;5029236;28;20554;-75
2022/10/08 04:06:16;;;;;;;9.80;8.53;;;15.40;99.90;;;;;;5032242;28;20202;-75
2022/10/08 04:08:42;;;;;;;9.30;8.50;;;15.30;99.90;;;;;;5031536;28;20433;-75
2022/10/08 04:11:10;;;;;;;10.27;8.97;;;15.60;99.90;;;;;;5030884;28;20182;-74
2022/10/08 04:13:37;;;;;;;14.23;11.50;;;15.60;99.90;;;;;;5030723;28;20494;-75
2022/10/08 04:16:05;;;;;;;9.68;8.70;;;15.60;99.90;;;;;;5031317;28;20268;-75
2022/10/08 04:18:31;;;;;;;8.57;7.70;;;15.60;99.90;;;;;;5031039;28;20583;-75
2022/10/08 04:20:58;;;;;;;9.83;8.17;;;15.70;99.90;;;;;;5031656;28;20233;-75
2022/10/08 04:23:25;;;;;;;9.60;8.60;;;15.70;99.90;;;;;;5034126;28;21209;-75
2022/10/08 04:25:52;;;;;;;10.60;9.60;;;15.80;99.90;;;;;;5031548;28;20292;-75
2022/10/08 04:28:18;;;;;;;10.02;8.38;;;15.80;99.90;;;;;;5031548;28;20651;-75
2022/10/08 04:30:57;;;;;;;12.77;9.60;;;15.60;99.90;;;;;;5035087;28;20177;-75
2022/10/08 04:33:23;;;;;;;9.63;8.82;;;15.60;99.90;;;;;;5031193;28;20188;-75
2022/10/08 04:35:49;;;;;;;9.75;8.80;;;15.70;99.90;;;;;;5031089;28;20275;-75
2022/10/08 04:38:15;;;;;;;9.23;8.33;;;15.80;99.90;;;;;;5032516;28;20648;-75
2022/10/08 04:40:40;;;;;;;10.20;9.20;;;15.90;99.90;;;;;;5031331;28;20239;-75
2022/10/08 04:43:06;;;;;;;12.90;11.57;;;15.80;99.90;;;;;;5030031;28;20206;-75
2022/10/08 04:45:32;;;;;;;9.40;8.40;;;15.80;99.90;;;;;;5029802;28;20198;-75
2022/10/08 04:47:57;;;;;;;9.57;8.50;;;16.00;99.90;;;;;;5034100;28;20213;-75
2022/10/08 04:50:23;;;;;;;11.90;8.80;;;15.80;99.90;;;;;;5025696;28;20198;-74
2022/10/08 04:52:48;;;;;;;9.20;8.50;;;15.90;99.90;;;;;;5032111;28;20194;-74
2022/10/08 04:55:14;;;;;;;10.57;9.50;;;15.80;99.90;;;;;;5031443;28;20197;-74
2022/10/08 04:57:40;;;;;;;11.73;8.80;;;15.60;99.90;;;;;;5033476;28;20209;-74
2022/10/08 05:00:06;;;;;;;9.67;8.87;;;16.00;99.90;;;;;;5030276;28;20190;-75
2022/10/08 05:02:32;;;;;;;9.73;8.82;;;15.90;99.90;;;;;;5032793;28;20186;-75
2022/10/08 05:04:58;;;;;;;9.63;8.70;;;16.10;99.90;;;;;;5030116;28;20206;-76
2022/10/08 05:07:24;;;;;;;12.27;9.93;;;15.90;99.90;;;;;;5026250;28;20949;-75
2022/10/08 05:09:50;;;;;;;9.48;8.30;;;15.90;99.90;;;;;;5030596;28;20194;-76
2022/10/08 05:12:16;;;;;;;14.10;9.27;;;15.60;99.90;;;;;;5029182;28;20563;-75
2022/10/08 05:14:41;;;;;;;9.30;8.40;;;15.70;99.90;;;;;;5030336;28;20441;-75
2022/10/08 05:17:07;;;;;;;10.10;8.90;;;15.50;99.90;;;;;;5031760;28;20743;-75
2022/10/08 05:19:34;;;;;;;10.63;9.63;;;15.50;99.90;;;;;;5030647;28;20202;-76
2022/10/08 05:21:59;;;;;;;15.57;8.93;;;15.40;99.90;;;;;;5026408;28;20289;-76
2022/10/08 05:24:25;;;;;;;9.47;8.57;;;15.60;99.90;;;;;;5027704;28;20818;-76
2022/10/08 05:26:51;;;;;;;12.13;8.77;;;15.30;99.90;;;;;;5026438;28;20198;-76
2022/10/08 05:29:18;;;;;;;10.47;9.50;;;15.40;99.90;;;;;;5032522;28;20170;-75
2022/10/08 05:31:44;;;;;;;10.60;9.50;;;15.50;99.90;;;;;;5029560;28;20183;-76
2022/10/08 05:34:12;;;;;;;10.55;9.50;;;15.30;99.90;;;;;;5032392;28;20187;-75
2022/10/08 05:36:38;;;;;;;11.10;9.43;;;15.00;99.90;;;;;;5032117;28;20713;-76
2022/10/08 05:39:04;;;;;;;11.77;10.03;;;15.10;99.90;;;;;;5032410;28;20198;-76
2022/10/08 05:41:33;;;;;;;10.68;9.65;;;15.00;99.90;;;;;;5024288;28;20221;-75
2022/10/08 05:44:02;;;;;;;10.20;8.55;;;14.80;99.90;;;;;;5030300;28;20738;-75
2022/10/08 05:46:30;;;;;;;10.20;9.20;;;14.80;99.90;;;;;;5028678;28;20250;-76
2022/10/08 05:48:57;;;;;;;12.80;9.68;;;14.90;99.90;;;;;;5028233;28;20269;-76
2022/10/08 05:51:23;;;;;;;11.95;9.00;;;15.00;99.90;;;;;;5020761;28;20326;-75
2022/10/08 05:53:50;;;;;;;11.55;10.30;;;14.70;99.90;;;;;;5021498;28;20186;-75
2022/10/08 05:56:19;;;;;;;10.50;9.40;;;14.60;99.90;;;;;;5028817;28;20297;-75
2022/10/08 05:58:46;;;;;;;10.70;9.65;;;14.00;99.90;;;;;;5028660;28;20182;-76
2022/10/08 06:01:13;;;;;;;11.50;10.30;;;14.30;99.90;;;;;;5034329;28;20205;-64
2022/10/08 06:03:39;;;;;;;10.68;9.68;;;14.10;99.90;;;;;;5025439;28;20210;-64
2022/10/08 06:06:10;;;;;;;18.40;10.40;;;14.70;99.90;;;;;;5026256;28;20529;-64
2022/10/08 06:08:37;;;;;;;11.50;10.15;;;14.70;99.90;;;;;;5025309;28;20444;-64
2022/10/08 06:11:04;;;;;;;10.63;9.52;;;14.60;99.90;;;;;;5025719;28;20924;-64
2022/10/08 06:13:31;;;;;;;12.57;9.10;;;14.60;99.90;;;;;;5029126;28;20186;-64
2022/10/08 06:16:00;;;;;;;11.70;10.25;;;14.50;99.90;;;;;;5035191;28;20206;-64
2022/10/08 06:18:29;;;;;;;11.38;10.38;;;14.60;99.90;;;;;;5033474;28;20588;-64
2022/10/08 06:20:55;;;;;;;12.63;9.10;;;14.70;99.90;;;;;;5026016;28;20293;-64
2022/10/08 06:23:21;;;;;;;12.67;8.97;;;14.80;99.90;;;;;;5038442;28;20722;-62
2022/10/08 06:25:47;;;;;;;10.52;8.75;;;14.70;99.90;;;;;;5027851;28;20281;-64
2022/10/08 06:28:13;;;;;;;11.17;9.00;;;14.70;99.90;;;;;;5032956;28;20272;-64
2022/10/08 06:30:40;;;;;;;10.27;9.27;;;14.60;99.90;;;;;;5036430;28;20432;-64
2022/10/08 06:33:07;;;;;;;11.10;9.70;;;14.50;99.90;;;;;;5027135;28;20455;-64
2022/10/08 06:35:33;;;;;;;10.18;8.90;;;14.60;99.90;;;;;;5027366;28;20214;-64
2022/10/08 06:37:58;;;;;;;17.65;9.45;;;14.90;99.90;;;;;;5031098;28;20185;-64
2022/10/08 06:40:24;;;;;;;10.60;9.50;;;14.70;99.90;;;;;;5027699;28;20196;-64
2022/10/08 06:42:50;;;;;;;10.80;9.00;;;14.70;99.90;;;;;;5028641;28;20667;-64
2022/10/08 06:45:16;;;;;;;9.02;8.00;;;14.90;99.90;;;;;;5027500;28;20226;-64
2022/10/08 06:47:42;;;;;;;9.10;8.30;;;14.80;99.90;;;;;;5027955;28;20241;-64
2022/10/08 06:50:08;;;;;;;12.23;9.90;;;15.00;99.90;;;;;;5027068;28;20182;-64
2022/10/08 06:52:33;;;;;;;11.50;8.53;;;15.00;99.90;;;;;;5026609;28;20229;-64
2022/10/08 06:54:59;;;;;;;10.00;8.50;;;15.00;99.90;;;;;;5027145;28;20957;-64
2022/10/08 06:57:25;;;;;;;10.33;8.93;;;15.00;99.90;;;;;;5022816;28;20189;-65
2022/10/08 06:59:53;;;;;;;15.30;9.93;;;15.20;99.90;;;;;;5028578;28;20191;-64
2022/10/08 07:02:19;;;;;;;11.95;8.20;;;15.00;99.90;;;;;;5027470;28;20206;-63
2022/10/08 07:04:45;;;;;;;12.40;8.43;;;15.00;99.90;;;;;;5031230;28;20206;-63
2022/10/08 07:07:11;;;;;;;14.50;8.37;;;15.20;99.90;;;;;;5022508;28;20612;-63
2022/10/08 07:09:36;;;;;;;8.90;8.10;;;15.50;99.90;;;;;;5026372;28;20257;-63
2022/10/08 07:12:02;;;;;;;9.17;8.37;;;15.10;99.90;;;;;;5026461;28;20205;-63
2022/10/08 07:14:28;;;;;;;15.87;10.90;;;15.20;99.90;;;;;;5027200;28;20553;-63
2022/10/08 07:16:53;;;;;;;12.70;8.40;;;15.50;99.90;;;;;;5026750;28;20529;-63
2022/10/08 07:19:19;;;;;;;12.60;7.97;;;15.60;99.90;;;;;;5022201;28;20186;-70
2022/10/08 07:21:45;;;;;;;9.63;8.20;;;15.90;99.90;;;;;;5016871;28;20198;-75
2022/10/08 07:24:10;;;;;;;9.93;7.70;;;16.00;99.90;;;;;;5021096;28;20209;-70
2022/10/08 07:26:36;;;;;;;7.90;7.10;;;16.10;99.90;;;;;;5023639;28;20200;-56
2022/10/08 07:29:03;;;;;;;18.77;8.63;;;16.00;99.90;;;;;;5028705;28;20236;-56
2022/10/08 07:31:32;;;;;;;8.45;7.53;;;16.20;99.90;;;;;;5026600;28;20261;-57
2022/10/08 07:33:59;;;;;;;9.25;7.63;;;16.40;99.90;;;;;;5030134;28;20190;-57
2022/10/08 07:36:26;;;;;;;6.43;5.82;;;16.80;99.90;;;;;;5031147;28;20210;-67
2022/10/08 07:38:56;;;;;;;10.95;7.47;;;16.90;99.90;;;;;;5030560;28;20190;-68
2022/10/08 07:41:24;;;;;;;8.40;6.10;;;17.30;99.90;;;;;;5028781;28;20555;-69
2022/10/08 07:43:51;;;;;;;8.20;5.90;;;17.30;99.90;;;;;;5030080;28;20204;-66
2022/10/08 07:46:17;;;;;;;7.20;4.25;;;17.60;99.90;;;;;;5028565;28;20205;-70
2022/10/08 07:48:43;;;;;;;8.30;4.27;;;17.50;99.90;;;;;;5031930;28;20215;-71
2022/10/08 07:51:17;;;;;;;4.77;3.87;;;17.80;99.90;;;;;;5029364;28;20189;-70
2022/10/08 07:53:44;;;;;;;6.90;5.00;;;17.90;99.90;;;;;;5030610;28;22011;-70
2022/10/08 07:56:12;;;;;;;8.25;4.22;;;17.90;99.90;;;;;;5029481;28;20260;-67
2022/10/08 07:58:39;;;;;;;5.28;3.78;;;18.20;99.90;;;;;;5027999;28;20267;-67
2022/10/08 08:01:08;;;;;;;8.02;4.60;;;18.20;99.90;;;;;;5030216;28;20186;-68
2022/10/08 08:03:34;;;;;;;6.70;4.40;;;18.60;99.90;;;;;;5031248;28;20202;-68
2022/10/08 08:06:02;;;;;;;5.60;3.80;;;18.40;99.90;;;;;;5026324;28;20205;-69
2022/10/08 08:08:28;;;;;;;7.32;3.90;;;18.50;99.90;;;;;;5032241;28;20213;-69
2022/10/08 08:10:57;;;;;;;6.03;4.47;;;18.60;99.90;;;;;;5031449;28;20648;-68
2022/10/08 08:13:24;;;;;;;6.70;4.10;;;18.60;99.70;;;;;;5030379;28;20194;-69
2022/10/08 08:16:01;;;;;;;5.43;4.55;;;18.50;99.90;;;;;;5028698;28;20340;-69
2022/10/08 08:18:31;;;;;;;7.40;4.50;;;18.70;99.70;;;;;;5028604;28;20205;-67
2022/10/08 08:21:02;;;;;;;5.15;4.00;;;18.80;99.70;;;;;;5029835;28;20221;-66
2022/10/08 08:23:30;;;;;;;4.82;4.00;;;18.80;99.50;;;;;;5031242;28;20209;-67
2022/10/08 08:25:59;;;;;;;5.20;4.70;;;18.80;99.80;;;;;;5030252;28;20221;-65
2022/10/08 08:28:25;;;;;;;8.20;4.53;;;18.50;99.80;;;;;;5031794;28;20553;-69
2022/10/08 08:30:50;;;;;;;6.30;4.27;;;18.70;99.40;;;;;;5031541;28;20184;-72
2022/10/08 08:33:16;;;;;;;7.60;3.63;;;18.50;99.60;;;;;;5024761;28;20186;-65
2022/10/08 08:35:50;;;;;;;6.33;3.73;;;18.40;99.30;;;;;;5028067;28;20663;-64
2022/10/08 08:38:16;;;;;;;3.80;3.35;;;18.30;99.00;;;;;;5024880;28;20713;-67
2022/10/08 08:40:42;;;;;;;7.40;4.77;;;18.40;98.80;;;;;;5029714;28;20213;-65
2022/10/08 08:43:08;;;;;;;5.00;3.53;;;18.50;97.70;;;;;;5028782;28;20289;-65
2022/10/08 08:45:35;;;;;;;5.97;3.30;;;18.50;97.60;;;;;;5028490;28;20205;-65
2022/10/08 08:48:17;;;;;;;3.95;3.53;;;18.40;96.80;;;;;;5030918;28;20428;-66
2022/10/08 08:50:45;;;;;;;8.85;3.50;;;18.30;96.60;;;;;;5027868;28;20194;-65
2022/10/08 08:53:11;;;;;;;4.57;2.95;;;18.20;96.80;;;;;;5024433;28;20598;-65
2022/10/08 08:55:39;;;;;;;9.35;4.00;;;18.10;96.80;;;;;;5032282;28;20212;-66
2022/10/08 08:58:43;;;;;;;4.75;3.33;;;18.10;96.10;;;;;;5026853;28;20270;-65
2022/10/08 09:01:09;;;;;;;5.68;3.40;;;18.10;95.60;;;;;;5027583;28;20209;-65
2022/10/08 09:03:42;;;;;;;6.53;3.00;;;18.00;95.60;;;;;;5030109;28;20209;-65
2022/10/08 09:06:13;;;;;;;6.72;3.15;;;18.10;95.90;;;;;;5025049;28;20194;-65
2022/10/08 09:08:55;;;;;;;5.25;3.53;;;18.40;95.60;;;;;;5033590;28;20216;-65
2022/10/08 09:11:22;;;;;;;4.85;2.95;;;18.50;95.20;;;;;;5023792;28;20182;-65
2022/10/08 09:14:26;;;;;;;4.90;2.90;;;18.70;94.70;;;;;;5028373;28;20556;-66
2022/10/08 09:16:53;;;;;;;3.60;2.50;;;18.70;94.20;;;;;;5008889;28;20224;-65
2022/10/08 09:19:20;;;;;;;5.55;2.80;;;18.90;93.90;;;;;;5030720;28;20178;-65
2022/10/08 09:21:45;;;;;;;5.72;2.65;;;18.80;93.50;;;;;;5024455;28;20555;-66
2022/10/08 09:24:11;;;;;;;8.37;2.80;;;18.90;93.50;;;;;;5030065;28;20217;-66
2022/10/08 09:26:36;;;;;;;8.63;3.40;;;19.00;92.80;;;;;;5026626;28;20525;-66
2022/10/08 09:29:04;;;;;;;7.13;3.60;;;19.20;93.30;;;;;;5029845;28;20651;-65
2022/10/08 09:31:56;;;;;;;5.45;3.13;;;19.30;92.80;;;;;;5029554;28;20218;-65
2022/10/08 09:34:22;;;;;;;6.95;2.42;;;19.40;92.50;;;;;;5022870;28;20205;-65
2022/10/08 09:36:51;;;;;;;4.60;3.10;;;19.40;91.80;;;;;;5022993;28;20209;-66
2022/10/08 09:39:31;;;;;;;4.78;2.15;;;19.40;92.60;;;;;;5025334;28;20521;-65
2022/10/08 09:42:06;;;;;;;6.13;2.90;;;19.30;92.70;;;;;;5014507;28;20177;-65
2022/10/08 09:44:46;;;;;;;6.82;2.85;;;19.50;92.00;;;;;;5027650;28;20663;-64
2022/10/08 09:47:18;;;;;;;11.55;6.15;;;20.00;90.80;;;;;;5028930;28;20840;-64
2022/10/08 09:49:48;;;;;;;4.65;2.65;;;20.60;90.20;;;;;;5032037;28;20236;-65
2022/10/08 09:52:22;;;;;;;4.82;2.30;;;20.50;88.10;;;;;;5038633;28;20244;-65
2022/10/08 09:55:14;;;;;;;3.60;3.05;;;20.70;88.70;;;;;;5033044;28;20297;-65
2022/10/08 09:57:44;;;;;;;5.15;3.08;;;20.50;88.00;;;;;;5024550;28;20680;-64
2022/10/08 10:00:30;;;;;;;5.93;2.40;;;20.50;87.40;;;;;;5036792;28;20282;-64
2022/10/08 10:02:57;;;;;;;6.55;3.00;;;20.30;87.90;;;;;;5039277;28;20190;-65
2022/10/08 10:05:27;;;;;;;5.93;3.05;;;20.30;86.80;;;;;;5028961;28;20280;-64
2022/10/08 10:07:53;;;;;;;8.27;2.58;;;20.20;87.40;;;;;;5037578;28;20183;-64
2022/10/08 10:10:43;;;;;;;7.90;3.45;;;20.00;88.20;;;;;;5035789;28;20177;-64
2022/10/08 10:13:18;;;;;;;8.30;3.30;;;20.00;88.20;;;;;;5024297;28;20185;-64
2022/10/08 10:15:52;;;;;;;6.38;2.80;;;20.70;88.50;;;;;;5039612;28;20210;-64
2022/10/08 10:18:49;;;;;;;4.10;2.30;;;20.20;86.80;;;;;;5034276;28;20206;-64
2022/10/08 10:21:28;;;;;;;4.85;2.75;;;19.80;88.00;;;;;;5032443;28;20675;-64
2022/10/08 10:24:42;;;;;;;6.63;2.58;;;20.00;87.60;;;;;;5039109;28;20210;-65
2022/10/08 10:27:16;;;;;;;4.55;3.00;;;20.00;86.20;;;;;;5001708;28;20235;-65
2022/10/08 10:29:56;;;;;;;4.55;2.60;;;20.30;87.70;;;;;;5033520;28;20503;-64
2022/10/08 10:32:45;;;;;;;6.78;2.92;;;20.10;86.40;;;;;;5034585;28;20177;-65
2022/10/08 10:35:19;;;;;;;5.40;2.05;;;19.90;86.00;;;;;;5030449;28;20189;-65
2022/10/08 10:37:59;;;;;;;9.18;3.30;;;19.90;86.50;;;;;;5034916;28;20193;-65
2022/10/08 10:40:29;;;;;;;6.72;2.75;;;20.00;86.80;;;;;;5038274;28;20185;-64
2022/10/08 10:43:09;;;;;;;7.93;2.50;;;19.60;86.30;;;;;;5026507;28;20194;-65
2022/10/08 10:45:38;;;;;;;3.45;2.28;;;19.70;87.30;;;;;;5036360;28;20206;-65
2022/10/08 10:48:06;;;;;;;8.18;3.83;;;19.90;86.80;;;;;;5029719;28;20178;-65
2022/10/08 10:51:08;;;;;;;5.03;2.78;;;20.00;86.40;;;;;;5030996;28;20627;-65
2022/10/08 10:54:20;;;;;;;7.07;2.95;;;20.10;85.40;;;;;;5021306;28;20193;-65
2022/10/08 10:56:55;;;;;;;4.38;2.50;;;20.60;84.00;;;;;;5011806;28;20736;-65
2022/10/08 11:00:08;;;;;;;5.53;2.30;;;20.70;81.70;;;;;;5016488;28;20569;-65
2022/10/08 11:02:44;;;;;;;3.45;2.60;;;20.50;81.50;;;;;;4968939;28;20196;-65
2022/10/08 11:05:24;;;;;;;3.90;2.63;;;20.30;81.30;;;;;;5018470;28;20316;-73
2022/10/08 11:08:16;;;;;;;4.28;2.30;;;20.40;81.60;;;;;;5024232;28;20614;-73
2022/10/08 11:11:04;;;;;;;2.88;2.10;;;20.70;79.90;;;;;;5026469;28;20269;-66
2022/10/08 11:13:52;;;;;;;4.32;3.00;;;20.80;80.30;;;;;;5039145;28;20193;-68
2022/10/08 11:16:30;;;;;;;5.28;2.15;;;20.60;78.50;;;;;;5031562;28;20701;-68
2022/10/08 11:18:58;;;;;;;6.93;2.22;;;20.60;79.20;;;;;;5034838;28;20263;-71
2022/10/08 11:21:57;;;;;;;7.32;2.00;;;20.40;79.40;;;;;;5031515;28;20581;-68
2022/10/08 11:24:42;;;;;;;5.50;2.42;;;20.50;78.90;;;;;;5029482;28;20226;-67
2022/10/08 11:27:26;;;;;;;4.35;3.03;;;20.30;77.90;;;;;;5032551;28;20216;-67
2022/10/08 11:30:01;;;;;;;4.55;2.50;;;20.30;78.00;;;;;;5034255;28;20235;-67
2022/10/08 11:32:28;;;;;;;5.82;2.50;;;20.30;77.90;;;;;;5037600;28;20575;-66
2022/10/08 11:34:57;;;;;;;5.20;2.10;;;20.10;79.00;;;;;;5032616;28;20189;-67
2022/10/08 11:37:41;;;;;;;3.97;3.13;;;20.00;78.90;;;;;;5042214;28;20178;-76
2022/10/08 11:40:29;;;;;;;6.68;2.25;;;20.00;77.70;;;;;;5035088;28;20186;-74
2022/10/08 11:43:02;;;;;;;4.25;2.10;;;19.70;78.60;;;;;;5033952;28;20251;-72
2022/10/08 11:45:34;;;;;;;4.95;2.20;;;19.70;78.80;;;;;;5032308;28;20690;-72
2022/10/08 11:48:20;;;;;;;5.25;2.58;;;19.60;80.30;;;;;;5028416;28;20186;-73
2022/10/08 11:50:46;;;;;;;9.05;2.25;;;19.80;79.90;;;;;;5035645;28;20193;-72
2022/10/08 11:53:14;;;;;;;2.80;2.10;;;19.60;79.00;;;;;;5032098;28;20182;-69
2022/10/08 11:55:54;;;;;;;3.88;2.33;;;19.40;80.20;;;;;;5031390;28;20209;-69
2022/10/08 11:58:31;;;;;;;8.02;2.25;;;19.40;79.80;;;;;;5031318;28;20182;-75
2022/10/08 12:01:08;;;;;;;6.63;3.08;;;19.20;80.50;;;;;;5032231;28;20202;-69
2022/10/08 12:03:35;;;;;;;7.53;3.22;;;19.10;80.90;;;;;;5031117;28;20253;-63
2022/10/08 12:06:26;;;;;;;3.22;1.63;;;19.20;80.70;;;;;;5027669;28;20194;-65
2022/10/08 12:08:52;;;;;;;5.00;2.20;;;19.30;81.10;;;;;;5043617;28;20206;-65
2022/10/08 12:11:38;;;;;;;4.17;2.33;;;19.30;81.80;;;;;;5029300;28;20220;-65
2022/10/08 12:14:10;;;;;;;4.90;1.92;;;19.60;82.70;;;;;;5026418;28;20269;-65
2022/10/08 12:16:57;;;;;;;3.50;1.90;;;19.30;79.20;;;;;;5027922;28;20259;-68
2022/10/08 12:19:34;;;;;;;4.78;2.40;;;19.50;79.70;;;;;;5027148;28;20214;-65
2022/10/08 12:22:01;;;;;;;4.57;2.33;;;19.50;77.50;;;;;;5029681;28;20197;-66
2022/10/08 12:24:38;;;;;;;5.03;1.90;;;19.50;77.50;;;;;;5031884;28;20205;-66
2022/10/08 12:27:16;;;;;;;2.92;1.80;;;19.50;77.80;;;;;;5027038;28;20340;-64
2022/10/08 12:30:13;;;;;;;3.90;2.03;;;19.60;77.10;;;;;;5028097;28;20210;-66
2022/10/08 12:32:38;;;;;;;6.07;2.28;;;19.30;78.00;;;;;;5025474;28;20704;-64
2022/10/08 12:35:04;;;;;;;3.60;2.30;;;19.70;79.30;;;;;;5024341;28;20193;-62
2022/10/08 12:37:51;;;;;;;7.05;2.20;;;19.70;80.90;;;;;;5027266;28;20558;-68
2022/10/08 12:40:49;;;;;;;4.30;2.78;;;19.50;81.00;;;;;;5026130;28;20933;-68
2022/10/08 12:43:37;;;;;;;5.80;2.55;;;19.70;82.50;;;;;;5023482;28;20664;-67
2022/10/08 12:46:22;;;;;;;3.85;2.35;;;19.80;82.40;;;;;;5027621;28;20811;-67
2022/10/08 12:48:47;;;;;;;3.28;2.17;;;19.60;82.70;;;;;;5029711;28;20192;-67
2022/10/08 12:51:19;;;;;;;4.40;2.00;;;19.60;83.40;;;;;;5026506;28;20259;-66
2022/10/08 12:53:45;;;;;;;5.88;2.08;;;19.40;82.60;;;;;;5022242;28;20183;-66
2022/10/08 12:56:19;;;;;;;6.20;3.08;;;19.40;83.90;;;;;;5029546;28;20293;-67
2022/10/08 12:58:47;;;;;;;5.72;1.90;;;19.30;83.40;;;;;;5026010;28;20181;-67
2022/10/08 13:01:16;;;;;;;2.03;1.52;;;19.10;83.40;;;;;;5026375;28;20189;-65
2022/10/08 13:03:42;;;;;;;6.45;2.10;;;19.00;85.00;;;;;;5028034;28;20213;-67